AQQ9 IFIS: Internet Flight Information System
logo dgac
Miércoles 28 de Febrero del 2024
Buscar por aerodromo o helipuerto
Ingrese nombre de aeródromo, localidad o designador OACI:
METAR del 27-02-2024 a las 20:00 UTC
Para mayor información visite www.meteochile.gob.cl
METAR SCAS 272000Z 25010KT 8000 -SHRA SCT020 BKN030 16/14 Q1007
Viento: dirección 250 grados, velocidad 10 nudos
Visibilidad: 8000 metros
Débil ChubascosLluvia
Nubes: Nubosidad parcial a 2000 pies sobre el nivel del aeródromo
Nubes: Nublado a 3000 pies sobre el nivel del aeródromo
Temperatura: 16 °C
Rocío: 14 °C
Humedad_relativa: 88%
Presión: 1007 hPa
METAR del 27-02-2024 a las 19:00 UTC
Para mayor información visite www.meteochile.gob.cl
METAR SCAS 271900Z 24004KT 9000 VCSH SCT015 BKN030 15/14 Q1008
Viento: dirección 240 grados, velocidad 4 nudos
Visibilidad: 9000 metros
En los alrededores, Chubascos
Nubes: Nubosidad parcial a 1500 pies sobre el nivel del aeródromo
Nubes: Nublado a 3000 pies sobre el nivel del aeródromo
Temperatura: 15 °C
Rocío: 14 °C
Humedad_relativa: 94%
Presión: 1008 hPa
METAR del 27-02-2024 a las 18:00 UTC
Para mayor información visite www.meteochile.gob.cl
METAR SCAS 271800Z 24006KT 8000 -RA SCT015 OVC030 15/14 Q1008
Viento: dirección 240 grados, velocidad 6 nudos
Visibilidad: 8000 metros
Débil Lluvia
Nubes: Nubosidad parcial a 1500 pies sobre el nivel del aeródromo
Nubes: Cubierto a 3000 pies sobre el nivel del aeródromo
Temperatura: 15 °C
Rocío: 14 °C
Humedad_relativa: 94%
Presión: 1008 hPa
METAR del 27-02-2024 a las 17:00 UTC
Para mayor información visite www.meteochile.gob.cl
METAR SCAS 271700Z 24006KT 6000 -RA SCT010 OVC030 14/14 Q1008
Viento: dirección 240 grados, velocidad 6 nudos
Visibilidad: 6000 metros
Débil Lluvia
Nubes: Nubosidad parcial a 1000 pies sobre el nivel del aeródromo
Nubes: Cubierto a 3000 pies sobre el nivel del aeródromo
Temperatura: 14 °C
Rocío: 14 °C
Humedad_relativa: 100%
Presión: 1008 hPa
METAR del 27-02-2024 a las 16:00 UTC
Para mayor información visite www.meteochile.gob.cl
METAR SCAS 271600Z 25006KT 6000 -RA SCT005 OVC025 14/13 Q1009
Viento: dirección 250 grados, velocidad 6 nudos
Visibilidad: 6000 metros
Débil Lluvia
Nubes: Nubosidad parcial a 500 pies sobre el nivel del aeródromo
Nubes: Cubierto a 2500 pies sobre el nivel del aeródromo
Temperatura: 14 °C
Rocío: 13 °C
Humedad_relativa: 94%
Presión: 1009 hPa
METAR del 27-02-2024 a las 15:00 UTC
Para mayor información visite www.meteochile.gob.cl
METAR SCAS 271500Z 24006KT 7000 -RA SCT005 OVC025 14/13 Q1009
Viento: dirección 240 grados, velocidad 6 nudos
Visibilidad: 7000 metros
Débil Lluvia
Nubes: Nubosidad parcial a 500 pies sobre el nivel del aeródromo
Nubes: Cubierto a 2500 pies sobre el nivel del aeródromo
Temperatura: 14 °C
Rocío: 13 °C
Humedad_relativa: 94%
Presión: 1009 hPa
METAR del 27-02-2024 a las 14:00 UTC
Para mayor información visite www.meteochile.gob.cl
METAR SCAS 271400Z 00000KT 7000 -RA SCT008 OVC030 14/13 Q1009
Visibilidad: 7000 metros
Débil Lluvia
Nubes: Nubosidad parcial a 800 pies sobre el nivel del aeródromo
Nubes: Cubierto a 3000 pies sobre el nivel del aeródromo
Temperatura: 14 °C
Rocío: 13 °C
Humedad_relativa: 94%
Presión: 1009 hPa
METAR del 27-02-2024 a las 13:00 UTC
Para mayor información visite www.meteochile.gob.cl
METAR SCAS 271300Z 00000KT 8000 -RA SCT010 OVC033 13/13 Q1010
Visibilidad: 8000 metros
Débil Lluvia
Nubes: Nubosidad parcial a 1000 pies sobre el nivel del aeródromo
Nubes: Cubierto a 3300 pies sobre el nivel del aeródromo
Temperatura: 13 °C
Rocío: 13 °C
Humedad_relativa: 100%
Presión: 1010 hPa
METAR del 27-02-2024 a las 12:00 UTC
Para mayor información visite www.meteochile.gob.cl
METAR SCAS 271200Z 00000KT 9000 -RA FEW015 OVC036 13/12 Q1010
Visibilidad: 9000 metros
Débil Lluvia
Nubes: Escasa nubosidad a 1500 pies sobre el nivel del aeródromo
Nubes: Cubierto a 3600 pies sobre el nivel del aeródromo
Temperatura: 13 °C
Rocío: 12 °C
Humedad_relativa: 94%
Presión: 1010 hPa